Time;durP1;ratioP1;P1;durP2;ratioP2;P2;SDS_P1;SDS_P2;PMS_P1;PMS_P2;Temp;Humidity;BMP_temperature;BMP_pressure;BME280_temperature;BME280_humidity;BME280_pressure;Samples;Min_cycle;Max_cycle;Signal;HPM_P1;HPM_P2
2021/06/06 00:01:54;;;;;;;3.67;0.75;;;20.00;45.00;;;;;;4312134;33;20475;-36
2021/06/06 00:04:22;;;;;;;3.05;0.60;;;20.00;44.80;;;;;;4299834;33;20472;-36
2021/06/06 00:06:48;;;;;;;2.42;0.55;;;20.10;44.70;;;;;;4311780;33;20186;-36
2021/06/06 00:09:16;;;;;;;4.72;0.90;;;20.20;44.60;;;;;;4317442;32;20551;-37
2021/06/06 00:11:52;;;;;;;2.12;0.60;;;20.20;44.50;;;;;;4318199;33;20097;-36
2021/06/06 00:14:37;;;;;;;4.12;0.90;;;20.20;44.50;;;;;;4356956;32;20152;-37
2021/06/06 00:17:07;;;;;;;3.42;0.93;;;20.20;44.30;;;;;;4358308;32;20090;-37
2021/06/06 00:19:34;;;;;;;2.90;0.70;;;20.30;44.30;;;;;;4359062;32;20143;-36
2021/06/06 00:22:01;;;;;;;1.95;0.68;;;20.30;44.20;;;;;;4344641;32;20066;-37
2021/06/06 00:24:30;;;;;;;1.35;0.50;;;20.30;44.10;;;;;;4320005;32;20568;-36
2021/06/06 00:26:57;;;;;;;1.87;0.80;;;20.40;44.00;;;;;;4344331;32;20556;-36
2021/06/06 00:29:24;;;;;;;2.00;0.70;;;20.40;43.80;;;;;;4358617;32;20055;-38
2021/06/06 00:31:50;;;;;;;5.87;0.98;;;20.40;43.70;;;;;;4344670;32;20138;-37
2021/06/06 00:34:17;;;;;;;2.85;0.77;;;20.40;43.80;;;;;;4358396;32;20061;-37
2021/06/06 00:36:43;;;;;;;1.35;0.70;;;20.30;43.90;;;;;;4358688;32;20081;-37
2021/06/06 00:39:10;;;;;;;1.98;0.60;;;20.20;44.00;;;;;;4358100;32;20093;-38
2021/06/06 00:41:38;;;;;;;4.07;0.80;;;20.20;44.20;;;;;;4344401;32;20059;-37
2021/06/06 00:44:05;;;;;;;4.70;0.52;;;20.20;44.10;;;;;;4332187;32;20439;-37
2021/06/06 00:46:31;;;;;;;4.85;0.73;;;20.30;44.20;;;;;;4358493;32;20062;-37
2021/06/06 00:48:58;;;;;;;5.80;0.82;;;20.30;44.00;;;;;;4358487;32;20070;-38
2021/06/06 00:51:43;;;;;;;4.78;0.70;;;20.40;43.90;;;;;;4358146;32;20070;-37
2021/06/06 00:54:14;;;;;;;2.50;1.17;;;20.40;43.70;;;;;;4345000;32;20170;-38
2021/06/06 00:56:42;;;;;;;1.27;0.60;;;20.50;43.60;;;;;;4358142;32;20085;-38
2021/06/06 00:59:09;;;;;;;1.52;0.50;;;20.60;43.50;;;;;;4344209;32;20210;-38
2021/06/06 01:01:36;;;;;;;1.73;0.40;;;20.70;43.30;;;;;;4344664;32;20144;-36
2021/06/06 01:04:03;;;;;;;1.35;0.68;;;20.80;43.00;;;;;;4331933;32;20514;-37
2021/06/06 01:06:36;;;;;;;2.22;0.50;;;20.80;42.70;;;;;;4358369;32;20046;-37
2021/06/06 01:09:05;;;;;;;3.90;0.98;;;20.80;42.50;;;;;;4358256;32;20501;-36
2021/06/06 01:11:45;;;;;;;1.15;0.50;;;20.90;42.60;;;;;;4344530;32;20066;-37
2021/06/06 01:14:18;;;;;;;0.60;0.40;;;20.90;42.50;;;;;;4331212;33;20067;-36
2021/06/06 01:17:21;;;;;;;2.40;0.50;;;21.00;42.50;;;;;;4330318;33;20066;-37
2021/06/06 01:20:23;;;;;;;3.08;0.88;;;21.00;42.30;;;;;;4329104;33;20082;-37
2021/06/06 01:23:27;;;;;;;3.62;0.60;;;21.10;42.10;;;;;;4332344;32;20138;-37
2021/06/06 01:25:59;;;;;;;3.40;0.68;;;21.20;42.00;;;;;;4319583;33;20504;-36
2021/06/06 01:28:56;;;;;;;1.10;0.57;;;21.20;41.70;;;;;;4317887;33;20086;-37
2021/06/06 01:31:23;;;;;;;4.65;0.60;;;21.30;41.70;;;;;;4329746;33;20067;-37
2021/06/06 01:33:57;;;;;;;1.77;0.60;;;21.40;41.50;;;;;;4316830;33;20082;-37
2021/06/06 01:36:31;;;;;;;0.90;0.50;;;21.50;41.50;;;;;;4329810;32;20553;-37
2021/06/06 01:39:22;;;;;;;2.00;0.40;;;21.60;41.40;;;;;;4306003;32;20663;-37
2021/06/06 01:41:54;;;;;;;0.77;0.50;;;21.70;41.20;;;;;;4300939;33;20058;-37
2021/06/06 01:44:24;;;;;;;2.50;0.65;;;22.00;40.70;;;;;;4317247;33;20059;-37
2021/06/06 01:47:04;;;;;;;2.12;0.68;;;22.20;40.30;;;;;;4317267;33;20109;-38
2021/06/06 01:49:31;;;;;;;3.65;0.50;;;22.50;39.70;;;;;;4306606;33;20102;-38
2021/06/06 01:52:00;;;;;;;0.77;0.35;;;22.70;39.20;;;;;;4328951;33;20086;-37
2021/06/06 01:54:29;;;;;;;1.10;0.80;;;22.90;38.90;;;;;;4317496;33;20093;-37
2021/06/06 01:56:55;;;;;;;3.28;1.23;;;23.10;38.60;;;;;;4317020;33;20078;-38
2021/06/06 01:59:30;;;;;;;1.15;0.50;;;23.20;38.20;;;;;;4317210;33;20059;-38
2021/06/06 02:01:56;;;;;;;0.60;0.40;;;23.40;37.80;;;;;;4305740;33;20483;-38
2021/06/06 02:04:23;;;;;;;6.90;0.75;;;23.60;37.50;;;;;;4342850;32;20132;-37
2021/06/06 02:07:08;;;;;;;0.80;0.40;;;23.80;37.20;;;;;;4342813;33;20071;-37
2021/06/06 02:09:39;;;;;;;2.10;0.50;;;24.10;36.80;;;;;;4306107;33;20135;-38
2021/06/06 02:12:07;;;;;;;5.28;0.50;;;24.40;36.30;;;;;;4317473;33;20158;-39
2021/06/06 02:14:44;;;;;;;1.23;0.77;;;24.60;36.00;;;;;;4331863;32;20074;-37
2021/06/06 02:17:30;;;;;;;3.83;1.10;;;24.90;35.60;;;;;;4346927;32;20093;-37
2021/06/06 02:20:01;;;;;;;7.82;0.70;;;25.20;35.30;;;;;;4347431;32;20093;-39
2021/06/06 02:22:30;;;;;;;3.17;0.40;;;25.40;34.60;;;;;;4360445;32;20135;-38
2021/06/06 02:24:57;;;;;;;2.47;0.40;;;25.70;34.80;;;;;;4346283;32;20074;-39
2021/06/06 02:27:36;;;;;;;1.00;0.50;;;25.90;33.90;;;;;;4346391;32;20474;-39
2021/06/06 02:30:28;;;;;;;2.65;0.60;;;26.20;33.90;;;;;;4346901;32;20074;-39
2021/06/06 02:33:06;;;;;;;3.35;0.47;;;26.40;33.20;;;;;;4331617;33;20147;-37
2021/06/06 02:35:55;;;;;;;3.75;0.60;;;26.60;33.00;;;;;;4345627;32;20098;-39
2021/06/06 02:38:44;;;;;;;10.98;1.27;;;26.80;33.10;;;;;;4331445;33;20066;-38
2021/06/06 02:41:23;;;;;;;4.68;0.85;;;27.00;32.30;;;;;;4343914;33;20086;-39
2021/06/06 02:44:01;;;;;;;3.58;0.52;;;27.20;32.60;;;;;;4344920;32;20073;-39
2021/06/06 02:46:28;;;;;;;3.25;0.65;;;27.30;32.20;;;;;;4331724;33;20071;-38
2021/06/06 02:48:59;;;;;;;1.62;0.50;;;27.60;32.20;;;;;;4331421;33;20055;-38
2021/06/06 02:51:25;;;;;;;2.87;0.40;;;27.70;32.40;;;;;;4343685;33;20518;-39
2021/06/06 02:54:05;;;;;;;1.40;0.50;;;27.70;31.30;;;;;;4343381;33;20094;-38
2021/06/06 02:56:46;;;;;;;1.48;0.60;;;27.70;31.30;;;;;;4332129;33;20048;-39
2021/06/06 02:59:28;;;;;;;7.00;0.60;;;27.70;31.50;;;;;;4332124;33;20094;-39
2021/06/06 03:02:04;;;;;;;1.02;0.50;;;27.80;31.50;;;;;;4343588;33;20502;-39
2021/06/06 03:04:32;;;;;;;1.50;0.50;;;27.90;31.40;;;;;;4343570;33;20414;-40
2021/06/06 03:07:18;;;;;;;1.25;0.50;;;28.00;31.20;;;;;;4331177;33;20094;-39
2021/06/06 03:09:45;;;;;;;3.05;0.60;;;28.10;30.80;;;;;;4331412;33;20094;-39
2021/06/06 03:12:12;;;;;;;2.28;0.50;;;28.10;30.70;;;;;;4344448;32;20169;-39
2021/06/06 03:14:41;;;;;;;2.97;0.60;;;28.10;31.10;;;;;;4304666;33;20116;-39
2021/06/06 03:17:17;;;;;;;5.07;0.45;;;28.10;30.80;;;;;;4316975;33;20098;-39
2021/06/06 03:19:49;;;;;;;4.47;0.75;;;28.20;30.70;;;;;;4328242;33;20504;-39
2021/06/06 03:22:20;;;;;;;4.72;0.62;;;28.20;30.70;;;;;;4316879;33;20085;-39
2021/06/06 03:24:53;;;;;;;2.85;0.50;;;28.30;30.80;;;;;;4316500;33;20079;-38
2021/06/06 03:27:22;;;;;;;1.98;0.50;;;28.40;30.90;;;;;;4304013;33;20111;-38
2021/06/06 03:30:22;;;;;;;1.10;0.50;;;28.50;30.70;;;;;;4316419;33;20063;-38
2021/06/06 03:32:49;;;;;;;5.70;0.90;;;28.60;30.80;;;;;;4327974;33;20082;-39
2021/06/06 03:35:15;;;;;;;4.07;0.70;;;28.60;30.50;;;;;;4328212;33;20183;-39
2021/06/06 03:37:42;;;;;;;1.92;0.50;;;28.50;30.40;;;;;;4329545;33;20079;-39
2021/06/06 03:40:09;;;;;;;4.57;0.85;;;28.50;30.40;;;;;;4328270;33;20530;-39
2021/06/06 03:42:37;;;;;;;3.83;0.68;;;28.60;30.80;;;;;;4328011;33;20078;-39
2021/06/06 03:45:06;;;;;;;4.00;0.70;;;28.70;30.90;;;;;;4329420;33;20090;-39
2021/06/06 03:47:32;;;;;;;6.78;0.95;;;29.00;31.40;;;;;;4329522;33;20164;-38
2021/06/06 03:49:59;;;;;;;3.87;1.40;;;29.10;31.30;;;;;;4329216;33;20554;-38
2021/06/06 03:52:25;;;;;;;7.95;1.42;;;29.10;31.50;;;;;;4329687;33;20074;-38
2021/06/06 03:54:53;;;;;;;7.32;1.52;;;29.10;31.40;;;;;;4329237;33;20556;-39
2021/06/06 03:57:21;;;;;;;4.68;1.73;;;29.00;31.60;;;;;;4328996;33;20082;-39
2021/06/06 03:59:47;;;;;;;6.93;1.23;;;28.90;31.70;;;;;;4329090;33;20063;-39
2021/06/06 04:02:14;;;;;;;6.32;1.27;;;28.80;31.30;;;;;;4329314;33;20070;-39
2021/06/06 04:04:40;;;;;;;6.65;1.58;;;28.60;31.60;;;;;;4329364;33;20578;-38
2021/06/06 04:07:07;;;;;;;8.40;2.30;;;28.40;32.20;;;;;;4327438;33;20133;-39
2021/06/06 04:09:33;;;;;;;7.82;2.40;;;28.40;32.50;;;;;;4329037;33;20154;-39
2021/06/06 04:12:00;;;;;;;14.70;3.03;;;28.20;32.50;;;;;;4327462;33;20075;-39
2021/06/06 04:14:26;;;;;;;14.65;2.87;;;28.00;32.60;;;;;;4342982;33;20071;-38
2021/06/06 04:16:52;;;;;;;11.55;2.35;;;27.80;33.00;;;;;;4343737;32;20078;-38
2021/06/06 04:19:19;;;;;;;6.32;3.12;;;27.60;33.40;;;;;;4343461;32;20059;-38
2021/06/06 04:21:45;;;;;;;12.80;4.40;;;27.50;33.50;;;;;;4343775;32;20100;-38
2021/06/06 04:24:14;;;;;;;9.85;2.83;;;27.40;33.50;;;;;;4343614;32;20060;-39
2021/06/06 04:26:40;;;;;;;7.03;2.42;;;27.30;33.70;;;;;;4341885;33;20071;-38
2021/06/06 04:29:08;;;;;;;11.48;3.28;;;27.20;33.80;;;;;;4343212;32;20105;-38
2021/06/06 04:31:35;;;;;;;6.53;3.00;;;27.00;34.10;;;;;;4343783;32;20055;-37
2021/06/06 04:34:02;;;;;;;7.93;2.70;;;26.90;34.20;;;;;;4341757;33;20063;-38
2021/06/06 04:36:29;;;;;;;7.72;3.33;;;26.80;34.60;;;;;;4343572;33;20447;-37
2021/06/06 04:38:55;;;;;;;6.97;2.95;;;26.80;34.80;;;;;;4343073;32;20070;-38
2021/06/06 04:41:22;;;;;;;6.70;2.17;;;26.80;35.10;;;;;;4343265;32;20109;-39
2021/06/06 04:43:48;;;;;;;13.62;3.60;;;26.80;35.20;;;;;;4343213;32;20122;-39
2021/06/06 04:46:15;;;;;;;14.20;4.25;;;27.00;34.90;;;;;;4343078;32;20067;-39
2021/06/06 04:48:44;;;;;;;11.50;3.67;;;27.20;34.70;;;;;;4343085;32;20073;-38
2021/06/06 04:51:19;;;;;;;8.98;4.05;;;27.30;34.60;;;;;;4341816;33;20043;-40
2021/06/06 04:53:49;;;;;;;7.50;3.80;;;27.50;34.40;;;;;;4343395;32;20541;-39
2021/06/06 04:56:21;;;;;;;12.32;2.72;;;27.70;34.30;;;;;;4343790;32;20175;-40
2021/06/06 04:58:48;;;;;;;7.62;2.85;;;28.00;33.70;;;;;;4343851;33;20525;-40
2021/06/06 05:01:14;;;;;;;8.27;2.83;;;28.20;32.90;;;;;;4344083;32;20573;-40
2021/06/06 05:03:41;;;;;;;7.55;2.55;;;28.50;32.80;;;;;;4343463;32;20588;-39
2021/06/06 05:06:08;;;;;;;6.35;1.87;;;28.70;33.00;;;;;;4342172;33;20571;-40
2021/06/06 05:08:35;;;;;;;6.07;2.12;;;28.90;32.40;;;;;;4343981;32;20146;-40
2021/06/06 05:11:01;;;;;;;8.20;3.20;;;29.00;31.80;;;;;;4343038;32;20066;-39
2021/06/06 05:13:28;;;;;;;7.35;3.45;;;29.30;32.10;;;;;;4334670;32;20069;-40
2021/06/06 05:15:54;;;;;;;11.35;3.10;;;29.60;32.10;;;;;;4326732;33;20058;-39
2021/06/06 05:18:22;;;;;;;8.35;2.80;;;29.90;31.80;;;;;;4328411;33;20140;-41
2021/06/06 05:20:49;;;;;;;7.22;2.00;;;30.30;30.60;;;;;;4328415;33;20590;-40
2021/06/06 05:23:18;;;;;;;3.92;1.40;;;30.50;30.40;;;;;;4328631;33;20064;-40
2021/06/06 05:25:44;;;;;;;7.05;1.80;;;30.70;29.60;;;;;;4328739;33;20067;-40
2021/06/06 05:28:19;;;;;;;12.15;2.12;;;30.70;29.50;;;;;;4328022;33;20063;-39
2021/06/06 05:30:46;;;;;;;4.32;1.62;;;30.60;29.80;;;;;;4328362;33;20098;-39
2021/06/06 05:33:12;;;;;;;7.40;1.98;;;30.60;29.50;;;;;;4337313;33;20078;-41
2021/06/06 05:35:39;;;;;;;7.70;2.08;;;30.60;29.60;;;;;;4343177;32;20525;-41
2021/06/06 05:38:07;;;;;;;6.30;2.30;;;30.50;29.70;;;;;;4342689;32;20491;-41
2021/06/06 05:40:34;;;;;;;6.32;2.35;;;30.40;29.70;;;;;;4342717;32;20066;-41
2021/06/06 05:43:02;;;;;;;4.78;1.60;;;30.40;29.90;;;;;;4342708;32;20067;-41
2021/06/06 05:45:29;;;;;;;8.27;2.70;;;30.30;30.00;;;;;;4342948;33;20201;-41
2021/06/06 05:47:55;;;;;;;8.50;2.80;;;30.30;30.10;;;;;;4343007;32;20094;-41
2021/06/06 05:50:25;;;;;;;5.62;2.33;;;30.30;30.00;;;;;;4344147;32;20061;-42
2021/06/06 05:52:51;;;;;;;5.55;2.33;;;30.50;30.20;;;;;;4346064;32;20127;-42
2021/06/06 05:55:18;;;;;;;11.43;2.83;;;30.80;30.20;;;;;;4346135;33;20138;-41
2021/06/06 05:57:45;;;;;;;8.98;2.90;;;31.10;30.00;;;;;;4346083;32;20089;-42
2021/06/06 06:00:18;;;;;;;13.27;3.37;;;31.40;30.40;;;;;;4345624;32;20471;-42
2021/06/06 06:02:44;;;;;;;8.52;3.35;;;31.70;30.10;;;;;;4331940;33;20056;-42
2021/06/06 06:05:12;;;;;;;8.70;3.58;;;32.00;30.10;;;;;;4345769;32;20591;-43
2021/06/06 06:07:38;;;;;;;10.18;3.72;;;32.30;30.00;;;;;;4345836;32;20173;-42
2021/06/06 06:10:12;;;;;;;8.38;3.30;;;32.50;30.90;;;;;;4345177;33;20195;-42
2021/06/06 06:12:39;;;;;;;7.40;3.12;;;32.90;30.00;;;;;;4348603;32;20073;-42
2021/06/06 06:15:10;;;;;;;8.45;3.65;;;33.30;29.40;;;;;;4360457;32;20169;-43
2021/06/06 06:17:36;;;;;;;5.28;3.33;;;33.80;29.10;;;;;;4360105;32;20186;-42
2021/06/06 06:20:06;;;;;;;9.27;2.95;;;34.20;29.00;;;;;;4360032;32;20066;-42
2021/06/06 06:22:33;;;;;;;6.97;3.65;;;34.50;28.40;;;;;;4346316;32;20077;-42
2021/06/06 06:24:59;;;;;;;7.22;3.78;;;34.80;27.90;;;;;;4359813;32;20553;-43
2021/06/06 06:27:26;;;;;;;10.10;2.90;;;35.20;27.60;;;;;;4360042;32;20064;-43
2021/06/06 06:29:52;;;;;;;4.43;2.87;;;35.30;27.60;;;;;;4359667;32;21344;-43
2021/06/06 06:32:19;;;;;;;10.27;3.37;;;35.50;27.40;;;;;;4359858;32;20470;-43
2021/06/06 06:34:45;;;;;;;4.60;2.67;;;35.60;27.20;;;;;;4359757;32;20074;-44
2021/06/06 06:37:11;;;;;;;8.00;2.47;;;35.80;27.20;;;;;;4359798;32;20065;-44
2021/06/06 06:39:38;;;;;;;5.30;2.58;;;35.80;26.90;;;;;;4359691;32;20085;-43
2021/06/06 06:42:05;;;;;;;8.70;2.95;;;35.90;26.90;;;;;;4359921;32;20161;-43
2021/06/06 06:44:31;;;;;;;7.40;2.60;;;35.80;26.80;;;;;;4359916;32;20066;-42
2021/06/06 06:46:58;;;;;;;11.80;3.80;;;35.80;27.00;;;;;;4359626;32;20558;-41
2021/06/06 06:49:24;;;;;;;6.80;3.17;;;35.60;26.70;;;;;;4359833;32;20125;-42
2021/06/06 06:51:51;;;;;;;3.83;2.65;;;35.20;26.80;;;;;;4346052;32;20451;-41
2021/06/06 06:54:17;;;;;;;5.87;2.90;;;34.70;27.00;;;;;;4359908;32;20098;-42
2021/06/06 06:56:43;;;;;;;5.72;3.00;;;34.40;27.60;;;;;;4359506;32;20149;-41
2021/06/06 06:59:10;;;;;;;5.05;2.95;;;34.20;27.80;;;;;;4359447;32;20525;-42
2021/06/06 07:01:36;;;;;;;7.95;3.60;;;34.10;27.80;;;;;;4359328;32;20071;-41
2021/06/06 07:04:03;;;;;;;9.30;3.58;;;34.00;27.90;;;;;;4359435;32;20139;-41
2021/06/06 07:06:29;;;;;;;10.18;4.37;;;33.70;28.10;;;;;;4359441;32;20108;-42
2021/06/06 07:08:56;;;;;;;10.13;4.40;;;33.60;28.40;;;;;;4359469;32;20086;-42
2021/06/06 07:11:23;;;;;;;7.37;4.57;;;33.50;28.20;;;;;;4359490;32;20067;-41
2021/06/06 07:13:49;;;;;;;8.68;4.60;;;33.30;28.10;;;;;;4335085;32;20082;-42
2021/06/06 07:16:20;;;;;;;12.35;4.90;;;33.20;28.40;;;;;;4330899;33;20143;-42
2021/06/06 07:18:47;;;;;;;12.82;4.95;;;33.00;28.70;;;;;;4330655;33;20101;-42
2021/06/06 07:21:21;;;;;;;10.40;3.97;;;33.20;29.20;;;;;;4344570;33;20066;-42
2021/06/06 07:23:47;;;;;;;13.50;5.60;;;33.40;28.70;;;;;;4331125;33;20074;-42
2021/06/06 07:26:48;;;;;;;7.53;3.67;;;33.60;28.70;;;;;;4330399;33;20146;-43
2021/06/06 07:29:17;;;;;;;5.32;2.50;;;33.90;28.50;;;;;;4283192;33;20134;-42
2021/06/06 07:31:45;;;;;;;16.73;5.30;;;34.00;27.80;;;;;;4283225;33;20083;-41
2021/06/06 07:34:15;;;;;;;9.48;3.05;;;34.10;28.10;;;;;;4283073;33;20075;-42
2021/06/06 07:36:42;;;;;;;5.00;1.77;;;34.10;27.50;;;;;;4283520;33;20084;-42
2021/06/06 07:39:09;;;;;;;6.18;3.28;;;33.90;27.40;;;;;;4283610;33;20097;-42
2021/06/06 07:41:36;;;;;;;8.55;4.93;;;33.90;27.60;;;;;;4283279;33;20190;-42
2021/06/06 07:44:02;;;;;;;6.82;4.55;;;34.00;28.30;;;;;;4283387;33;20098;-42
2021/06/06 07:46:29;;;;;;;4.68;4.00;;;34.10;28.00;;;;;;4283116;33;20080;-42
2021/06/06 07:48:55;;;;;;;10.57;4.22;;;34.00;27.70;;;;;;4283161;33;20494;-42
2021/06/06 07:51:22;;;;;;;5.03;2.47;;;33.80;27.90;;;;;;4283068;33;20079;-42
2021/06/06 07:53:50;;;;;;;7.50;3.25;;;33.80;27.90;;;;;;4283177;33;20095;-42
2021/06/06 07:56:17;;;;;;;6.50;3.87;;;33.90;28.20;;;;;;4283365;33;20155;-41
2021/06/06 07:58:44;;;;;;;5.18;3.00;;;34.00;28.00;;;;;;4283140;33;20057;-41
2021/06/06 08:01:10;;;;;;;4.82;3.22;;;34.00;27.90;;;;;;4282881;33;20203;-42
2021/06/06 08:03:37;;;;;;;7.07;2.70;;;33.90;28.10;;;;;;4283539;33;20081;-42
2021/06/06 08:06:07;;;;;;;6.32;2.92;;;33.90;28.20;;;;;;4343653;32;20061;-41
2021/06/06 08:08:34;;;;;;;7.87;3.00;;;34.00;28.30;;;;;;4343900;33;20066;-41
2021/06/06 08:11:02;;;;;;;9.98;1.80;;;34.20;28.50;;;;;;4343449;32;20065;-42
2021/06/06 08:13:29;;;;;;;8.43;3.47;;;34.40;28.10;;;;;;4325607;32;20050;-41
2021/06/06 08:15:56;;;;;;;8.90;3.08;;;34.80;28.20;;;;;;4358599;32;20149;-43
2021/06/06 08:18:32;;;;;;;6.12;3.33;;;35.00;28.50;;;;;;4358552;32;20070;-41
2021/06/06 08:21:28;;;;;;;5.43;3.67;;;35.10;27.90;;;;;;4359102;32;20069;-42
2021/06/06 08:23:55;;;;;;;7.07;3.75;;;35.10;27.80;;;;;;4356903;32;20054;-41
2021/06/06 08:26:23;;;;;;;7.00;3.92;;;35.00;27.90;;;;;;4344810;32;20152;-41
2021/06/06 08:28:51;;;;;;;8.20;3.97;;;34.80;28.00;;;;;;4358446;32;20078;-40
2021/06/06 08:31:20;;;;;;;5.75;3.58;;;34.50;28.40;;;;;;4358272;32;20085;-42
2021/06/06 08:33:47;;;;;;;8.82;3.17;;;34.20;28.50;;;;;;4357884;32;20074;-41
2021/06/06 08:36:29;;;;;;;6.20;3.08;;;34.00;29.00;;;;;;4358216;32;20057;-40
2021/06/06 08:38:56;;;;;;;8.40;2.50;;;33.80;28.90;;;;;;4345152;32;20522;-40
2021/06/06 08:41:47;;;;;;;11.27;1.45;;;33.70;29.00;;;;;;4344439;32;20137;-40
2021/06/06 08:44:27;;;;;;;10.90;2.67;;;33.60;28.60;;;;;;4346901;32;20578;-40
2021/06/06 08:47:08;;;;;;;10.63;3.47;;;33.60;29.60;;;;;;4344002;32;20058;-40
2021/06/06 08:49:43;;;;;;;6.47;2.08;;;33.80;29.50;;;;;;4325360;33;20082;-41
2021/06/06 08:52:15;;;;;;;;;;;33.80;29.30;;;;;;4313319;33;20082;-40
2021/06/06 08:55:07;;;;;;;11.88;4.50;;;34.00;29.30;;;;;;4301974;33;19962;-41
2021/06/06 08:57:48;;;;;;;8.40;4.78;;;34.10;29.40;;;;;;4314735;33;20067;-41
2021/06/06 09:00:21;;;;;;;5.68;4.32;;;34.20;29.20;;;;;;4313728;33;20056;-40
2021/06/06 09:02:50;;;;;;;10.38;4.90;;;34.10;29.00;;;;;;4313735;33;20252;-40
2021/06/06 09:05:36;;;;;;;11.10;5.12;;;34.10;28.90;;;;;;4325905;33;20071;-40
2021/06/06 09:08:17;;;;;;;9.32;5.10;;;34.00;29.10;;;;;;4314250;33;20132;-41
2021/06/06 09:10:49;;;;;;;10.23;4.45;;;33.80;29.10;;;;;;4314823;33;20070;-41
2021/06/06 09:13:16;;;;;;;10.55;5.37;;;33.50;29.40;;;;;;4314035;33;20071;-40
2021/06/06 09:15:42;;;;;;;10.40;4.55;;;33.50;29.40;;;;;;4325328;33;20063;-41
2021/06/06 09:18:36;;;;;;;7.60;3.00;;;33.30;29.40;;;;;;4325382;33;20064;-41
2021/06/06 09:21:13;;;;;;;6.32;4.25;;;33.30;29.40;;;;;;4315131;33;20070;-40
2021/06/06 09:23:39;;;;;;;5.00;3.80;;;33.20;29.40;;;;;;4325591;33;20074;-41
2021/06/06 09:26:23;;;;;;;7.30;3.50;;;33.00;29.60;;;;;;4330885;32;20082;-40
2021/06/06 09:29:15;;;;;;;6.82;2.80;;;33.00;29.70;;;;;;4360515;32;20094;-40
2021/06/06 09:31:42;;;;;;;6.95;1.85;;;32.90;29.50;;;;;;4348222;32;20069;-41
2021/06/06 09:34:08;;;;;;;10.73;2.95;;;33.00;29.00;;;;;;4360882;32;21269;-40
2021/06/06 09:36:40;;;;;;;4.55;0.88;;;33.20;29.20;;;;;;4361019;32;20061;-40
2021/06/06 09:39:16;;;;;;;7.75;1.37;;;33.30;28.50;;;;;;4346864;32;20107;-41
2021/06/06 09:41:53;;;;;;;3.60;0.80;;;33.40;28.30;;;;;;4360664;32;20055;-41
2021/06/06 09:44:30;;;;;;;4.43;0.80;;;33.60;28.20;;;;;;4347709;32;20061;-40
2021/06/06 09:47:06;;;;;;;1.98;0.52;;;33.80;27.90;;;;;;4360674;32;20070;-41
2021/06/06 09:49:44;;;;;;;3.92;0.40;;;33.80;27.50;;;;;;4360413;32;20082;-41
2021/06/06 09:52:45;;;;;;;4.32;0.98;;;33.80;27.20;;;;;;4360758;32;20070;-41
2021/06/06 09:55:24;;;;;;;3.17;0.60;;;33.80;27.50;;;;;;4360692;32;20511;-40
2021/06/06 09:57:53;;;;;;;5.45;0.50;;;33.90;27.80;;;;;;4346874;32;20074;-40
2021/06/06 10:00:19;;;;;;;6.97;0.73;;;33.90;27.30;;;;;;4346157;32;20505;-41
2021/06/06 10:03:02;;;;;;;1.55;0.60;;;34.00;27.20;;;;;;4360431;32;20061;-41
2021/06/06 10:05:31;;;;;;;4.12;0.70;;;34.10;27.40;;;;;;4334561;32;20065;-40
2021/06/06 10:08:22;;;;;;;6.65;0.80;;;34.20;27.30;;;;;;4346499;32;20549;-40
2021/06/06 10:10:51;;;;;;;3.47;0.70;;;34.20;27.60;;;;;;4335499;32;20122;-39
2021/06/06 10:13:27;;;;;;;5.65;0.80;;;34.20;27.30;;;;;;4339340;33;20067;-40
2021/06/06 10:16:06;;;;;;;2.10;0.60;;;34.20;27.90;;;;;;4319958;33;20066;-40
2021/06/06 10:18:46;;;;;;;3.30;0.60;;;34.20;27.80;;;;;;4332063;32;20083;-41
2021/06/06 10:21:32;;;;;;;1.35;0.52;;;34.20;27.20;;;;;;4345237;32;20065;-41
2021/06/06 10:24:06;;;;;;;3.08;0.85;;;34.20;27.60;;;;;;4332350;33;20066;-45
2021/06/06 10:26:46;;;;;;;6.40;0.70;;;34.20;27.50;;;;;;4345194;33;20066;-41
2021/06/06 10:29:46;;;;;;;2.25;0.75;;;34.10;27.50;;;;;;4345019;33;20098;-40
2021/06/06 10:32:33;;;;;;;3.20;0.88;;;33.90;27.50;;;;;;4344808;32;20134;-41
2021/06/06 10:35:14;;;;;;;3.70;0.70;;;33.80;27.80;;;;;;4344752;33;20141;-41
2021/06/06 10:37:48;;;;;;;7.25;0.60;;;33.80;28.20;;;;;;4319302;33;20155;-40
2021/06/06 10:40:56;;;;;;;3.33;0.90;;;33.80;28.10;;;;;;4344917;32;20055;-40
2021/06/06 10:43:59;;;;;;;2.67;0.60;;;33.80;28.20;;;;;;4330952;33;20144;-40
2021/06/06 10:46:42;;;;;;;1.67;0.60;;;33.70;27.80;;;;;;4319704;33;20062;-40
2021/06/06 10:49:24;;;;;;;2.97;0.60;;;33.50;27.70;;;;;;4331207;33;20071;-40
2021/06/06 10:52:13;;;;;;;3.15;0.57;;;33.50;27.90;;;;;;4344655;32;20062;-40
2021/06/06 10:54:45;;;;;;;4.45;0.73;;;33.50;28.10;;;;;;4332886;33;20046;-40
2021/06/06 10:57:25;;;;;;;5.57;0.70;;;33.50;28.20;;;;;;4319249;33;20078;-40
2021/06/06 11:00:02;;;;;;;4.53;0.98;;;33.40;28.30;;;;;;4331933;32;20507;-40
2021/06/06 11:03:22;;;;;;;5.80;1.42;;;33.30;28.30;;;;;;4344869;32;20159;-40
2021/06/06 11:05:52;;;;;;;7.03;1.30;;;33.30;28.50;;;;;;4336445;32;20058;-41
2021/06/06 11:08:43;;;;;;;12.15;1.02;;;33.50;28.50;;;;;;4331014;33;20459;-40
2021/06/06 11:11:27;;;;;;;5.18;0.77;;;33.60;28.30;;;;;;4344567;33;20075;-41
2021/06/06 11:14:09;;;;;;;4.00;0.90;;;33.70;28.30;;;;;;4355738;32;20582;-41
2021/06/06 11:16:41;;;;;;;5.50;0.77;;;33.70;28.30;;;;;;4345389;32;20165;-40
2021/06/06 11:19:18;;;;;;;3.83;0.62;;;33.70;28.30;;;;;;4359478;32;20098;-41
2021/06/06 11:21:52;;;;;;;4.85;0.60;;;33.70;28.20;;;;;;4359260;32;20066;-40
2021/06/06 11:24:39;;;;;;;5.32;1.00;;;33.70;28.30;;;;;;4345619;32;20086;-42
2021/06/06 11:27:15;;;;;;;4.32;0.60;;;33.80;28.30;;;;;;4359295;32;20066;-41
2021/06/06 11:30:04;;;;;;;6.75;0.70;;;34.00;28.20;;;;;;4359069;32;20151;-41
2021/06/06 11:32:40;;;;;;;2.60;0.70;;;34.30;27.80;;;;;;4335211;32;20128;-41
2021/06/06 11:35:30;;;;;;;4.20;0.65;;;34.50;27.60;;;;;;4332961;32;20098;-41
2021/06/06 11:38:27;;;;;;;4.85;1.15;;;34.60;27.70;;;;;;4358953;32;20054;-41
2021/06/06 11:41:23;;;;;;;6.65;0.70;;;34.70;27.70;;;;;;4353327;32;20062;-41
2021/06/06 11:44:12;;;;;;;5.07;0.85;;;34.80;27.50;;;;;;4358499;32;20070;-40
2021/06/06 11:46:52;;;;;;;3.22;0.70;;;34.60;27.50;;;;;;4345532;32;20077;-41
2021/06/06 11:49:57;;;;;;;4.50;0.80;;;34.40;27.50;;;;;;4359275;32;20070;-40
2021/06/06 11:52:34;;;;;;;6.80;0.70;;;34.10;27.80;;;;;;4359211;32;20135;-40
2021/06/06 11:55:25;;;;;;;2.67;0.62;;;33.80;28.20;;;;;;4346249;32;20086;-41
2021/06/06 11:58:05;;;;;;;2.90;0.70;;;33.60;28.30;;;;;;4359482;32;20077;-42
2021/06/06 12:00:54;;;;;;;4.12;1.10;;;33.50;28.50;;;;;;4346778;32;20165;-40
2021/06/06 12:03:26;;;;;;;8.07;0.70;;;33.50;28.60;;;;;;4358835;32;20065;-40
2021/06/06 12:06:02;;;;;;;3.67;0.68;;;33.60;28.60;;;;;;4358771;32;20219;-41
2021/06/06 12:08:37;;;;;;;1.80;0.50;;;33.70;28.50;;;;;;4345106;32;20454;-41
2021/06/06 12:11:21;;;;;;;7.25;1.35;;;33.90;28.30;;;;;;4344390;32;20199;-41
2021/06/06 12:13:50;;;;;;;1.33;0.80;;;34.30;28.10;;;;;;4348227;32;20126;-41
2021/06/06 12:16:27;;;;;;;6.70;1.15;;;34.70;27.80;;;;;;4343331;32;20554;-41
2021/06/06 12:19:12;;;;;;;1.00;0.70;;;35.10;27.50;;;;;;4343539;33;20554;-41
2021/06/06 12:21:45;;;;;;;4.25;0.93;;;35.70;27.00;;;;;;4344099;32;20074;-41
2021/06/06 12:24:22;;;;;;;1.20;0.50;;;36.10;26.80;;;;;;4329642;33;20059;-41
2021/06/06 12:27:09;;;;;;;2.17;0.60;;;36.50;26.30;;;;;;4343696;33;20080;-40
2021/06/06 12:29:49;;;;;;;2.33;0.50;;;36.80;25.80;;;;;;4329945;33;20185;-42
2021/06/06 12:32:38;;;;;;;3.37;0.50;;;37.10;25.80;;;;;;4330321;33;20180;-42
2021/06/06 12:35:17;;;;;;;3.08;0.60;;;37.40;25.60;;;;;;4329213;33;20114;-42
2021/06/06 12:37:44;;;;;;;7.68;0.73;;;37.70;25.30;;;;;;4331101;33;20165;-42
2021/06/06 12:40:12;;;;;;;6.90;1.58;;;37.90;25.60;;;;;;4329766;33;20144;-41
2021/06/06 12:42:39;;;;;;;2.58;0.60;;;38.10;25.70;;;;;;4329416;33;20070;-42
2021/06/06 12:45:08;;;;;;;3.45;0.70;;;38.00;25.60;;;;;;4329891;33;20145;-42
2021/06/06 12:47:41;;;;;;;2.60;0.90;;;37.70;25.70;;;;;;4317306;33;20090;-41
2021/06/06 12:50:11;;;;;;;4.75;0.95;;;37.50;25.80;;;;;;4317296;33;20074;-41
2021/06/06 12:52:53;;;;;;;3.33;0.80;;;37.20;26.00;;;;;;4329892;33;20062;-42
2021/06/06 12:55:38;;;;;;;2.97;0.85;;;37.00;26.30;;;;;;4329828;33;20090;-42
2021/06/06 12:58:14;;;;;;;4.68;1.23;;;36.90;26.50;;;;;;4318205;33;20102;-40
2021/06/06 13:00:45;;;;;;;7.97;0.90;;;36.80;26.50;;;;;;4343344;32;20071;-42
2021/06/06 13:03:27;;;;;;;1.98;0.60;;;36.80;26.50;;;;;;4342915;32;20066;-42
2021/06/06 13:05:56;;;;;;;5.62;0.70;;;36.90;26.20;;;;;;4342918;33;20078;-41
2021/06/06 13:08:35;;;;;;;2.67;0.60;;;37.10;26.20;;;;;;4296147;33;20103;-41
2021/06/06 13:11:22;;;;;;;4.57;0.60;;;37.30;25.80;;;;;;4284639;33;20064;-42
2021/06/06 13:13:52;;;;;;;2.10;0.68;;;37.40;25.90;;;;;;4299241;33;20071;-42
2021/06/06 13:16:57;;;;;;;3.97;0.80;;;37.40;25.90;;;;;;4286971;33;20559;-40
2021/06/06 13:19:24;;;;;;;5.12;0.73;;;37.50;26.20;;;;;;4302516;33;20086;-41